• Join FlightAware (Why Join?)
  • Login
  • US Flag 
Gobble Gobble! 
08:40PM EST


 

Airport Tracker/Info


-or-


 

Live Flight TrackerFlight Track Log ✈ ASH3784 ✈ 08-Apr-2012 ✈ KCHS - KORD

Flight Track Log - Related Links

Times and Time Zones

All times are in EDT time to prevent confusion due to time zone crossing. See the ASH3784 flight status page for this flight to view local times or setup timezone preferences in your user account.

Time Position Orientation Groundspeed Altitude Reporting Facility
EDT Latitude Longitude Course Direction KTS MPH feet Rate Location/Type
06:13AM 32.9203 -80.0527 338° Northwest  Level FlightAware Approximate
06:14AM 32.9846 -80.0839 334° Northwest  Level FlightAware Approximate
06:14AM 32.9892 -80.0867 337° Northwest 214 246 4,100  Level Jacksonville Center
06:15AM 33.0503 -80.1169 338° Northwest 227 261 6,300 2,400 Climbing Jacksonville Center
06:16AM 33.1222 -80.1519 331° Northwest 271 312 8,900 2,640 Climbing Jacksonville Center
06:17AM 33.1856 -80.1947 310° West 271 312 11,600 2,640 Climbing Jacksonville Center
06:18AM 33.2331 -80.2628 315° West 270 311 14,200 1,980 Climbing Jacksonville Center
06:19AM 33.2931 -80.3356 314° West 287 330 15,600 1,740 Climbing Jacksonville Center
06:20AM 33.3572 -80.4158 314° West 307 353 17,700 1,800 Climbing Jacksonville Center
06:21AM 33.4214 -80.4961 313° West 329 379 19,200 1,500 Climbing Jacksonville Center
06:22AM 33.4897 -80.5839 315° West 343 395 20,800 1,800 Climbing Jacksonville Center
06:23AM 33.5581 -80.6669 313° West 348 400 22,900 1,680 Climbing Jacksonville Center
06:24AM 33.6264 -80.7550 314° West 353 406 24,200 1,320 Climbing Jacksonville Center
06:25AM 33.6967 -80.8431 326° Northwest 359 413 25,600 1,200 Climbing Jacksonville Center
06:26AM 33.7833 -80.9136 340° North 364 419 26,700 1,080 Climbing Jacksonville Center
06:28AM 33.9611 -80.9933 339° North 389 448 28,600 1,020 Climbing Atlanta Center
06:29AM 34.0667 -81.0422 340° North 395 455 29,600 960 Climbing Atlanta Center
06:30AM 34.1700 -81.0886 340° North 395 455 30,600 1,200 Climbing Atlanta Center
06:31AM 34.2775 -81.1353 339° North 400 460 32,000 1,200 Climbing Atlanta Center
06:32AM 34.3872 -81.1869 339° North 395 455 33,100 960 Climbing Atlanta Center
06:33AM 34.4906 -81.2339 339° North 390 449 34,000 420 Climbing Atlanta Center
06:34AM 34.5939 -81.2808 341° North 395 455 34,000  Level Atlanta Center
06:35AM 34.6992 -81.3253 339° North 395 455 34,000  Level Atlanta Center
06:36AM 34.8067 -81.3750 339° North 400 460 34,000  Level Atlanta Center
06:37AM 34.9122 -81.4247 339° North 400 460 34,000  Level Atlanta Center
06:38AM 35.0092 -81.4700 339° North 400 460 34,000  Level Atlanta Center
06:39AM 35.1144 -81.5200 341° North 410 472 34,000  Level Atlanta Center
06:40AM 35.2197 -81.5650 338° Northwest 405 466 34,000  Level Atlanta Center
06:41AM 35.3231 -81.6156 340° North 400 460 34,000  Level Atlanta Center
06:42AM 35.4408 -81.6681 335° Northwest 400 460 34,000  Level Atlanta Center
06:43AM 35.5422 -81.7264 327° Northwest 400 460 34,000  Level Atlanta Center
06:44AM 35.6353 -81.8006 328° Northwest 394 453 34,000  Level Atlanta Center
06:45AM 35.7283 -81.8719 325° Northwest 394 453 34,000  Level Atlanta Center
06:46AM 35.8153 -81.9467 330° Northwest 394 453 34,000  Level Atlanta Center
06:47AM 35.9081 -82.0133 327° Northwest 387 445 34,000  Level Atlanta Center
06:48AM 36.0011 -82.0881 326° Northwest 387 445 34,000  Level Atlanta Center
06:49AM 36.0772 -82.1506 329° Northwest 387 445 34,000  Level Atlanta Center
06:50AM 36.1700 -82.2203 324° Northwest 380 437 34,000  Level Atlanta Center
06:51AM 36.2522 -82.2931 327° Northwest 380 437 34,000  Level Atlanta Center
06:53AM 36.4628 -82.4647 327° Northwest 393 452 34,000  Level Indianapolis Center
06:54AM 36.5575 -82.5411 326° Northwest 401 461 34,000  Level Indianapolis Center
06:55AM 36.6519 -82.6200 328° Northwest 401 461 34,000  Level Indianapolis Center
06:56AM 36.7464 -82.6939 327° Northwest 401 461 34,000  Level Indianapolis Center
06:57AM 36.8386 -82.7681 325° Northwest 401 461 34,000  Level Indianapolis Center
06:58AM 36.9247 -82.8425 327° Northwest 406 467 34,000  Level Indianapolis Center
06:59AM 37.0317 -82.9300 325° Northwest 406 467 34,000  Level Indianapolis Center
07:00AM 37.1175 -83.0047 326° Northwest 400 460 34,000  Level Indianapolis Center
07:01AM 37.2075 -83.0797 326° Northwest 390 449 34,000  Level Indianapolis Center
07:02AM 37.2975 -83.1550 326° Northwest 390 449 34,000  Level Indianapolis Center
07:03AM 37.3853 -83.2303 327° Northwest 390 449 34,000  Level Indianapolis Center
07:04AM 37.4772 -83.3058 329° Northwest 384 442 34,000  Level Indianapolis Center
07:05AM 37.5714 -83.3761 330° Northwest 384 442 34,000  Level Indianapolis Center
07:06AM 37.6633 -83.4442 329° Northwest 389 448 34,000  Level Indianapolis Center
07:07AM 37.7550 -83.5150 329° Northwest 389 448 34,000  Level Indianapolis Center
07:08AM 37.8489 -83.5858 329° Northwest 394 453 34,000  Level Indianapolis Center
07:09AM 37.9428 -83.6572 330° Northwest 389 448 34,000  Level Indianapolis Center
07:10AM 38.0325 -83.7231 327° Northwest 389 448 34,000  Level Indianapolis Center
07:11AM 38.1239 -83.7972 331° Northwest 384 442 34,000  Level Indianapolis Center
07:12AM 38.2136 -83.8611 328° Northwest 384 442 34,000  Level Indianapolis Center
07:13AM 38.3050 -83.9328 328° Northwest 384 442 34,000  Level Indianapolis Center
07:14AM 38.3925 -84.0022 329° Northwest 384 442 34,000  Level Indianapolis Center
07:15AM 38.4819 -84.0717 329° Northwest 378 435 34,000  Level Indianapolis Center
07:16AM 38.5692 -84.1386 330° Northwest 372 428 34,000  Level Indianapolis Center
07:17AM 38.6586 -84.2058 328° Northwest 372 428 34,000  Level Indianapolis Center
07:18AM 38.7436 -84.2733 329° Northwest 361 415 34,000  Level Indianapolis Center
07:19AM 38.8350 -84.3433 327° Northwest 369 425 34,000  Level Indianapolis Center
07:20AM 38.9219 -84.4164 330° Northwest 375 432 34,000  Level Indianapolis Center
07:21AM 39.0133 -84.4844 329° Northwest 375 432 34,000  Level Indianapolis Center
07:22AM 39.0942 -84.5469 328° Northwest 375 432 34,000  Level Indianapolis Center
07:23AM 39.1831 -84.6178 328° Northwest 381 438 34,000  Level Indianapolis Center
07:24AM 39.2742 -84.6917 329° Northwest 381 438 34,000 -300 Level Indianapolis Center
07:25AM 39.3631 -84.7603 328° Northwest 381 438 33,500 -1,200 Descending Indianapolis Center
07:26AM 39.4542 -84.8344 329° Northwest 388 447 31,600 -1,860 Descending Indianapolis Center
07:27AM 39.5472 -84.9061 328° Northwest 393 452 29,800 -1,800 Descending Indianapolis Center
07:28AM 39.6422 -84.9833 327° Northwest 393 452 28,100 -900 Descending Indianapolis Center
07:29AM 39.7350 -85.0608 329° Northwest 398 458 28,000 -120 Descending Indianapolis Center
07:32AM 39.9492 -85.2306 329° Northwest 412 474 27,900 -360 Descending Chicago Center
07:33AM 40.0439 -85.3061 328° Northwest 402 463 26,900 -960 Descending Chicago Center
07:34AM 40.1361 -85.3819 327° Northwest 402 463 26,000 -480 Descending Chicago Center
07:35AM 40.2286 -85.4608 329° Northwest 402 463 26,000  Level Chicago Center
07:36AM 40.3206 -85.5344 327° Northwest 402 463 26,000 -120 Level Chicago Center
07:37AM 40.4131 -85.6139 331° Northwest 402 463 25,800 -660 Descending Chicago Center
07:38AM 40.5069 -85.6822 329° Northwest 402 463 24,700 -1,080 Descending Chicago Center
07:39AM 40.5989 -85.7536 323° Northwest 387 445 23,700 -900 Descending Chicago Center
07:40AM 40.6894 -85.8447 325° Northwest 382 440 23,000 -360 Descending Chicago Center
07:41AM 40.7667 -85.9172 323° Northwest 382 440 23,000  Level Chicago Center
07:42AM 40.8483 -85.9983 325° Northwest 369 425 23,000  Level Chicago Center
07:43AM 40.9339 -86.0789 324° Northwest 376 433 23,000  Level Chicago Center
07:44AM 41.0197 -86.1628 324° Northwest 376 433 23,000  Level Chicago Center
07:45AM 41.1033 -86.2442 324° Northwest 376 433 23,000 -300 Level Chicago Center
07:46AM 41.1953 -86.3336 324° Northwest 376 433 22,400 -1,380 Descending Chicago Center
07:47AM 41.2767 -86.4128 323° Northwest 371 427 20,300 -2,100 Descending Chicago Center
07:48AM 41.3581 -86.4950 324° Northwest 371 427 18,300 -1,860 Descending Chicago Center
07:49AM 41.4392 -86.5744 323° Northwest 371 427 16,600 -1,920 Descending Chicago Center
07:50AM 41.5161 -86.6517 322° Northwest 364 419 14,500 -1,860 Descending Chicago Center
07:51AM 41.5908 -86.7289 326° Northwest 344 396 12,900 -1,260 Descending Chicago Center
07:52AM 41.6653 -86.7956 353° North 333 383 12,000 -600 Descending Chicago Center
07:53AM 41.7575 -86.8111 351° North 318 366 11,800 -540 Descending Chicago Center
07:54AM 41.8433 -86.8300 317° Northwest 324 373 11,000 -720 Descending Chicago Center
07:55AM 41.9011 -86.9031 297° West 288 331 10,400 -540 Descending Chicago Center
07:56AM 41.9344 -86.9914 291° West 300 345 10,000 -240 Descending Chicago Center
07:57AM 41.9633 -87.0908 275° West 295 339 10,000 -600 Level Chicago Center
07:58AM 41.9694 -87.1800 271° West 269 310 8,900 -1,080 Descending Chicago Center
07:59AM 41.9711 -87.2747 270° West 258 297 7,900 -960 Descending Chicago Center
08:00AM 41.9706 -87.3669 267° West 252 290 7,000 -420 Descending Chicago Center
08:01AM 41.9667 -87.4833 270° West 244 281 7,000 -720 Level Chicago TRACON
08:02AM 41.9667 -87.5667 270° West 247 284 5,500 -1,560 Descending Chicago TRACON
08:03AM 41.9667 -87.6500 270° West 221 254 4,100 -1,260 Descending Chicago TRACON
08:03AM 41.9667 -87.7167 270° West 197 227 3,300 -1,020 Descending Chicago TRACON